createdAt,value
2022-09-22T00:01:18.663Z,11.83
2022-09-22T00:03:49.865Z,11.82
2022-09-22T00:06:19.430Z,11.78
2022-09-22T00:08:49.520Z,11.78
2022-09-22T00:11:19.226Z,11.75
2022-09-22T00:13:50.511Z,11.73
2022-09-22T00:16:19.617Z,11.72
2022-09-22T00:18:48.916Z,11.69
2022-09-22T00:21:18.646Z,11.67
2022-09-22T00:23:47.152Z,11.65
2022-09-22T00:26:16.338Z,11.60
2022-09-22T00:28:45.720Z,11.61
2022-09-22T00:31:15.511Z,11.60
2022-09-22T00:33:43.496Z,11.48
2022-09-22T00:36:12.726Z,11.56
2022-09-22T00:38:41.065Z,11.53
2022-09-22T00:41:10.970Z,11.49
2022-09-22T00:43:39.917Z,11.46
2022-09-22T00:46:14.732Z,11.44
2022-09-22T00:48:46.889Z,11.46
2022-09-22T00:51:17.734Z,11.44
2022-09-22T00:53:46.046Z,11.42
2022-09-22T00:56:15.400Z,11.40
2022-09-22T00:58:45.532Z,11.38
2022-09-22T01:01:15.237Z,11.39
2022-09-22T01:03:43.934Z,11.37
2022-09-22T01:06:18.313Z,11.29
2022-09-22T01:08:47.570Z,11.34
2022-09-22T01:11:16.009Z,11.34
2022-09-22T01:13:56.338Z,11.31
2022-09-22T01:16:37.811Z,11.30
2022-09-22T01:19:30.245Z,11.20
2022-09-22T01:22:04.026Z,11.26
2022-09-22T01:24:54.794Z,11.21
2022-09-22T01:27:35.485Z,11.20
2022-09-22T01:30:26.511Z,11.17
2022-09-22T01:33:08.028Z,11.15
2022-09-22T01:35:44.017Z,11.13
2022-09-22T01:38:14.275Z,11.10
2022-09-22T01:40:46.827Z,11.08
2022-09-22T01:43:18.531Z,11.07
2022-09-22T01:45:49.272Z,11.04
2022-09-22T01:48:20.515Z,11.01
2022-09-22T01:50:52.399Z,10.97
2022-09-22T01:53:24.093Z,10.97
2022-09-22T01:55:54.893Z,10.93
2022-09-22T01:58:26.489Z,10.93
2022-09-22T02:00:58.726Z,10.94
2022-09-22T02:03:30.422Z,10.86
2022-09-22T02:06:01.758Z,10.90
2022-09-22T02:08:33.652Z,10.82
2022-09-22T02:11:05.212Z,10.82
2022-09-22T02:13:32.880Z,10.89
2022-09-22T02:16:02.224Z,10.87
2022-09-22T02:18:33.394Z,10.87
2022-09-22T02:21:01.508Z,10.83
2022-09-22T02:23:29.480Z,10.83
2022-09-22T02:25:57.157Z,10.80
2022-09-22T02:28:25.817Z,10.78
2022-09-22T02:31:18.444Z,10.75
2022-09-22T02:33:45.445Z,10.75
2022-09-22T02:36:23.798Z,10.70
2022-09-22T02:38:54.985Z,10.74
2022-09-22T02:41:29.022Z,10.72
2022-09-22T02:44:01.596Z,10.71
2022-09-22T02:46:33.374Z,10.69
2022-09-22T02:49:04.733Z,10.66
2022-09-22T02:51:33.117Z,10.67
2022-09-22T02:54:01.730Z,10.66
2022-09-22T02:56:29.494Z,10.64
2022-09-22T02:58:58.571Z,10.60
2022-09-22T03:01:26.580Z,10.56
2022-09-22T03:03:54.645Z,10.54
2022-09-22T03:06:23.725Z,10.52
2022-09-22T03:08:51.381Z,10.48
2022-09-22T03:11:19.002Z,10.51
2022-09-22T03:13:46.654Z,10.51
2022-09-22T03:16:14.488Z,10.49
2022-09-22T03:18:42.205Z,10.48
2022-09-22T03:21:10.163Z,10.46
2022-09-22T03:23:39.220Z,10.46
2022-09-22T03:26:06.856Z,10.44
2022-09-22T03:28:34.489Z,10.43
2022-09-22T03:31:02.232Z,10.41
2022-09-22T03:33:29.937Z,10.41
2022-09-22T03:35:57.648Z,10.39
2022-09-22T03:38:25.442Z,10.38
2022-09-22T03:40:55.000Z,10.39
2022-09-22T03:43:22.754Z,10.38
2022-09-22T03:45:57.116Z,10.36
2022-09-22T03:48:25.008Z,10.33
2022-09-22T03:50:52.604Z,10.33
2022-09-22T03:53:20.846Z,10.33
2022-09-22T03:55:48.677Z,10.31
2022-09-22T03:58:19.923Z,10.27
2022-09-22T04:00:49.580Z,10.25
2022-09-22T04:03:17.284Z,10.26
2022-09-22T04:05:50.541Z,10.23
2022-09-22T04:08:18.269Z,10.20
2022-09-22T04:10:46.785Z,10.19
2022-09-22T04:13:14.946Z,10.18
2022-09-22T04:15:44.046Z,10.16
2022-09-22T04:18:13.768Z,10.13
2022-09-22T04:20:43.729Z,10.12
2022-09-22T04:23:11.637Z,10.12
2022-09-22T04:25:39.654Z,10.10
2022-09-22T04:28:07.908Z,10.09
2022-09-22T04:30:36.824Z,10.07
2022-09-22T04:33:06.135Z,10.07
2022-09-22T04:35:34.751Z,10.08
2022-09-22T04:38:02.389Z,10.06
2022-09-22T04:40:30.214Z,10.03
2022-09-22T04:42:58.547Z,10.00
2022-09-22T04:45:26.263Z,9.98
2022-09-22T04:47:54.504Z,9.97
2022-09-22T04:50:24.549Z,9.96
2022-09-22T04:52:53.794Z,9.93
2022-09-22T04:55:22.647Z,9.92
2022-09-22T04:57:50.503Z,9.93
2022-09-22T05:00:18.928Z,9.91
2022-09-22T05:02:46.815Z,9.90
2022-09-22T05:05:14.528Z,9.89
2022-09-22T05:07:45.797Z,9.89
2022-09-22T05:10:14.108Z,9.88
2022-09-22T05:12:42.072Z,9.87
2022-09-22T05:15:12.202Z,9.82
2022-09-22T05:17:46.223Z,9.84
2022-09-22T05:20:14.175Z,9.83
2022-09-22T05:22:42.140Z,9.81
2022-09-22T05:25:12.998Z,9.79
2022-09-22T05:27:44.753Z,9.77
2022-09-22T05:30:13.181Z,9.76
2022-09-22T05:32:43.854Z,9.74
2022-09-22T05:35:11.885Z,9.72
2022-09-22T05:37:39.721Z,9.69
2022-09-22T05:40:08.114Z,9.68
2022-09-22T05:42:40.788Z,9.67
2022-09-22T05:45:09.707Z,9.67
2022-09-22T05:47:37.552Z,9.68
2022-09-22T05:50:06.106Z,9.70
2022-09-22T05:52:33.886Z,9.72
2022-09-22T05:55:01.561Z,9.74
2022-09-22T05:57:29.374Z,9.77
2022-09-22T05:59:58.841Z,9.79
2022-09-22T06:02:27.094Z,9.80
2022-09-22T06:04:55.041Z,9.79
2022-09-22T06:07:24.084Z,9.80
2022-09-22T06:09:52.169Z,9.82
2022-09-22T06:12:20.430Z,9.85
2022-09-22T06:14:48.101Z,9.87
2022-09-22T06:17:17.065Z,9.89
2022-09-22T06:19:49.840Z,9.89
2022-09-22T06:22:18.384Z,9.90
2022-09-22T06:24:46.329Z,9.90
2022-09-22T06:27:14.080Z,9.92
2022-09-22T06:29:42.262Z,9.92
2022-09-22T06:32:10.477Z,9.96
2022-09-22T06:34:39.688Z,9.99
2022-09-22T06:37:09.621Z,10.02
2022-09-22T06:39:37.642Z,10.06
2022-09-22T06:42:05.858Z,10.10
2022-09-22T06:44:33.624Z,10.12
2022-09-22T06:47:05.226Z,10.17
2022-09-22T06:49:32.873Z,10.24
2022-09-22T06:52:02.243Z,10.26
2022-09-22T06:54:29.934Z,10.31
2022-09-22T06:56:57.833Z,10.37
2022-09-22T06:59:25.779Z,10.43
2022-09-22T07:01:53.551Z,10.48
2022-09-22T07:04:22.354Z,10.55
2022-09-22T07:06:50.957Z,10.65
2022-09-22T07:09:20.052Z,10.71
2022-09-22T07:11:49.109Z,10.78
2022-09-22T07:14:16.775Z,10.86
2022-09-22T07:16:44.444Z,10.96
2022-09-22T07:19:12.208Z,11.03
2022-09-22T07:21:40.419Z,11.11
2022-09-22T07:24:08.736Z,11.20
2022-09-22T07:26:39.305Z,11.26
2022-09-22T07:29:11.653Z,11.37
2022-09-22T07:31:40.566Z,11.45
2022-09-22T07:34:08.462Z,11.55
2022-09-22T07:36:37.987Z,11.63
2022-09-22T07:39:08.198Z,11.70
2022-09-22T07:41:41.824Z,11.78
2022-09-22T07:44:28.037Z,11.85
2022-09-22T07:46:56.033Z,11.92
2022-09-22T07:49:23.764Z,12.00
2022-09-22T07:51:54.785Z,12.08
2022-09-22T07:54:23.086Z,12.17
2022-09-22T07:56:55.345Z,12.23
2022-09-22T07:59:23.130Z,12.28
2022-09-22T08:01:51.508Z,12.33
2022-09-22T08:04:23.088Z,12.39
2022-09-22T08:06:55.613Z,12.46
2022-09-22T08:09:24.183Z,12.53
2022-09-22T08:11:53.481Z,12.62
2022-09-22T08:14:22.204Z,12.68
2022-09-22T08:16:51.891Z,12.76
2022-09-22T08:19:20.026Z,12.83
2022-09-22T08:21:49.820Z,12.90
2022-09-22T08:24:21.385Z,12.99
2022-09-22T08:26:51.210Z,13.08
2022-09-22T08:29:20.414Z,13.16
2022-09-22T08:31:49.287Z,13.23
2022-09-22T08:34:18.043Z,13.33
2022-09-22T08:36:48.499Z,13.39
2022-09-22T08:39:17.685Z,13.45
2022-09-22T08:41:56.505Z,13.50
2022-09-22T08:44:28.170Z,13.53
2022-09-22T08:47:01.119Z,13.65
2022-09-22T08:49:51.654Z,13.73
2022-09-22T08:52:25.480Z,13.85
2022-09-22T08:54:53.332Z,14.01
2022-09-22T08:57:39.112Z,14.11
2022-09-22T09:00:13.089Z,14.22
2022-09-22T09:02:42.448Z,14.26
2022-09-22T09:05:48.775Z,14.40
2022-09-22T09:08:46.460Z,14.49
2022-09-22T09:14:02.916Z,14.56
2022-09-22T09:16:45.108Z,14.62
2022-09-22T09:19:17.735Z,14.74
2022-09-22T09:21:51.257Z,14.83
2022-09-22T09:27:19.737Z,14.96
2022-09-22T09:29:57.624Z,15.07
2022-09-22T09:32:33.914Z,15.14
2022-09-22T09:35:01.915Z,15.23
2022-09-22T09:37:30.159Z,15.32
2022-09-22T09:39:58.185Z,15.38
2022-09-22T09:42:28.204Z,15.48
2022-09-22T09:45:02.461Z,15.54
2022-09-22T09:47:47.552Z,15.59
2022-09-22T09:50:16.568Z,15.63
2022-09-22T09:52:44.492Z,15.64
2022-09-22T09:55:26.747Z,15.57
2022-09-22T09:58:06.682Z,15.59
2022-09-22T10:00:34.488Z,15.65
2022-09-22T10:03:14.471Z,15.61
2022-09-22T10:05:43.469Z,15.69
2022-09-22T10:08:20.156Z,15.74
2022-09-22T10:10:48.881Z,15.90
2022-09-22T10:13:36.410Z,16.02
2022-09-22T10:16:22.318Z,16.15
2022-09-22T10:18:52.830Z,16.11
2022-09-22T10:21:22.251Z,16.00
2022-09-22T10:23:51.075Z,16.04
2022-09-22T10:26:21.920Z,16.03
2022-09-22T10:29:19.041Z,16.06
2022-09-22T10:32:05.495Z,16.11
2022-09-22T10:34:36.934Z,16.17
2022-09-22T10:37:07.181Z,16.29
2022-09-22T10:39:42.223Z,16.41
2022-09-22T10:42:20.233Z,16.51
2022-09-22T10:44:48.995Z,16.60
2022-09-22T10:47:34.024Z,16.79
2022-09-22T10:50:27.895Z,16.93
2022-09-22T10:52:57.882Z,16.97
2022-09-22T10:55:29.613Z,16.88
2022-09-22T10:58:13.217Z,16.93
2022-09-22T11:00:42.062Z,16.98
2022-09-22T11:03:47.338Z,17.05
2022-09-22T11:06:42.309Z,17.25
2022-09-22T11:09:33.617Z,17.34
2022-09-22T11:12:20.474Z,17.22
2022-09-22T11:15:11.639Z,17.13
2022-09-22T11:17:55.187Z,17.12
2022-09-22T11:20:38.167Z,17.18
2022-09-22T11:23:34.820Z,17.10
2022-09-22T11:26:23.375Z,17.04
2022-09-22T11:29:00.269Z,17.04
2022-09-22T11:31:46.625Z,17.04
2022-09-22T11:34:34.109Z,17.02
2022-09-22T11:37:25.567Z,17.24
2022-09-22T11:40:03.985Z,17.43
2022-09-22T11:42:37.001Z,17.64
2022-09-22T11:45:08.764Z,17.80
2022-09-22T11:47:48.768Z,17.75
2022-09-22T11:50:35.317Z,17.70
2022-09-22T11:53:22.547Z,17.74
2022-09-22T11:55:59.610Z,17.87
2022-09-22T11:59:45.920Z,18.18
2022-09-22T12:02:18.745Z,18.31
2022-09-22T12:04:50.697Z,18.33
2022-09-22T12:07:25.927Z,18.35
2022-09-22T12:09:56.455Z,18.27
2022-09-22T12:14:04.960Z,18.06
2022-09-22T12:16:41.695Z,17.86
2022-09-22T12:19:17.721Z,17.81
2022-09-22T12:21:49.798Z,17.85
2022-09-22T12:24:17.624Z,17.93
2022-09-22T12:26:47.456Z,17.97
2022-09-22T12:30:37.956Z,17.96
2022-09-22T12:33:05.709Z,18.02
2022-09-22T12:35:34.008Z,18.09
2022-09-22T12:38:02.480Z,18.04
2022-09-22T12:40:32.104Z,17.95
2022-09-22T12:43:00.922Z,17.95
2022-09-22T12:45:32.335Z,17.88
2022-09-22T12:48:04.782Z,17.77
2022-09-22T12:50:38.823Z,17.66
2022-09-22T12:53:11.554Z,17.59
2022-09-22T12:55:39.911Z,17.57
2022-09-22T12:58:42.829Z,17.53
2022-09-22T13:01:35.733Z,17.57
2022-09-22T13:04:14.878Z,17.67
2022-09-22T13:07:00.609Z,17.84
2022-09-22T13:09:31.708Z,17.99
2022-09-22T13:12:27.010Z,18.11
2022-09-22T13:15:02.510Z,18.12
2022-09-22T13:17:43.757Z,18.11
2022-09-22T13:20:21.740Z,18.11
2022-09-22T13:22:51.081Z,18.18
2022-09-22T13:25:27.223Z,18.21
2022-09-22T13:28:06.636Z,18.23
2022-09-22T13:30:34.343Z,18.22
2022-09-22T13:33:02.161Z,18.10
2022-09-22T13:35:32.979Z,18.07
2022-09-22T13:38:01.185Z,17.98
2022-09-22T13:40:31.589Z,17.96
2022-09-22T13:43:02.037Z,17.85
2022-09-22T13:45:30.430Z,17.88
2022-09-22T13:48:03.724Z,17.83
2022-09-22T13:50:41.008Z,17.81
2022-09-22T13:53:08.952Z,17.78
2022-09-22T13:55:37.506Z,17.77
2022-09-22T13:58:06.758Z,17.78
2022-09-22T14:01:08.776Z,17.88
2022-09-22T14:03:36.957Z,18.11
2022-09-22T14:06:09.020Z,18.26
2022-09-22T14:08:36.930Z,18.46
2022-09-22T14:11:06.147Z,18.66
2022-09-22T14:13:37.784Z,18.81
2022-09-22T14:16:27.664Z,18.98
2022-09-22T14:18:59.810Z,19.06
2022-09-22T14:21:28.847Z,19.10
2022-09-22T14:23:57.555Z,19.07
2022-09-22T14:26:33.351Z,18.95
2022-09-22T14:29:15.143Z,18.82
2022-09-22T14:31:46.572Z,18.69
2022-09-22T14:34:19.571Z,18.63
2022-09-22T14:36:49.612Z,18.66
2022-09-22T14:39:20.133Z,18.68
2022-09-22T14:41:52.365Z,18.71
2022-09-22T14:44:26.652Z,18.77
2022-09-22T14:46:56.634Z,18.79
2022-09-22T14:49:37.627Z,18.78
2022-09-22T14:52:08.103Z,18.78
2022-09-22T14:54:36.081Z,18.76
2022-09-22T14:57:07.608Z,18.70
2022-09-22T14:59:55.704Z,18.60
2022-09-22T15:02:33.083Z,18.47
2022-09-22T15:05:03.384Z,18.38
2022-09-22T15:07:34.207Z,18.37
2022-09-22T15:10:03.523Z,18.30
2022-09-22T15:12:36.077Z,18.23
2022-09-22T15:15:03.861Z,18.20
2022-09-22T15:17:56.841Z,18.16
2022-09-22T15:20:27.129Z,18.12
2022-09-22T15:22:56.765Z,18.20
2022-09-22T15:25:24.806Z,18.21
2022-09-22T15:27:53.433Z,18.22
2022-09-22T15:30:22.059Z,18.21
2022-09-22T15:32:50.232Z,18.19
2022-09-22T15:35:18.892Z,18.18
2022-09-22T15:37:47.521Z,18.15
2022-09-22T15:40:18.600Z,18.17
2022-09-22T15:43:08.605Z,18.14
2022-09-22T15:45:34.766Z,18.11
2022-09-22T15:48:02.767Z,18.08
2022-09-22T15:50:32.362Z,18.05
2022-09-22T15:53:00.015Z,18.03
2022-09-22T15:55:29.183Z,17.99
2022-09-22T15:58:09.029Z,17.96
2022-09-22T16:00:37.339Z,17.94
2022-09-22T16:03:09.681Z,17.91
2022-09-22T16:05:38.091Z,17.91
2022-09-22T16:08:05.756Z,17.87
2022-09-22T16:10:36.258Z,17.86
2022-09-22T16:13:04.300Z,17.85
2022-09-22T16:15:33.029Z,17.83
2022-09-22T16:18:00.734Z,17.80
2022-09-22T16:20:28.693Z,17.78
2022-09-22T16:22:56.268Z,17.77
2022-09-22T16:25:23.985Z,17.75
2022-09-22T16:27:53.174Z,17.74
2022-09-22T16:30:25.219Z,17.72
2022-09-22T16:32:53.995Z,17.71
2022-09-22T16:35:24.218Z,17.71
2022-09-22T16:37:55.813Z,17.68
2022-09-22T16:40:24.915Z,17.68
2022-09-22T16:42:53.969Z,17.66
2022-09-22T16:45:41.664Z,17.63
2022-09-22T16:48:09.294Z,17.61
2022-09-22T16:50:43.025Z,17.59
2022-09-22T16:53:11.141Z,17.56
2022-09-22T16:55:38.792Z,17.54
2022-09-22T16:58:13.102Z,17.51
2022-09-22T17:00:40.786Z,17.49
2022-09-22T17:03:08.448Z,17.47
2022-09-22T17:05:38.065Z,17.46
2022-09-22T17:08:06.898Z,17.42
2022-09-22T17:10:35.535Z,17.39
2022-09-22T17:13:04.802Z,17.34
2022-09-22T17:15:36.112Z,17.31
2022-09-22T17:18:04.387Z,17.27
2022-09-22T17:20:32.137Z,17.22
2022-09-22T17:22:59.908Z,17.18
2022-09-22T17:25:29.440Z,17.12
2022-09-22T17:27:57.769Z,17.11
2022-09-22T17:30:25.889Z,17.05
2022-09-22T17:32:55.068Z,17.02
2022-09-22T17:35:22.763Z,16.98
2022-09-22T17:37:52.121Z,16.93
2022-09-22T17:40:19.969Z,16.88
2022-09-22T17:42:48.318Z,16.85
2022-09-22T17:45:16.003Z,16.78
2022-09-22T17:48:01.378Z,16.71
2022-09-22T17:50:48.139Z,16.66
2022-09-22T17:53:33.185Z,16.60
2022-09-22T17:56:05.091Z,16.56
2022-09-22T17:58:32.798Z,16.52
2022-09-22T18:01:00.648Z,16.48
2022-09-22T18:03:29.059Z,16.42
2022-09-22T18:05:58.329Z,16.38
2022-09-22T18:08:26.166Z,16.34
2022-09-22T18:10:54.411Z,16.28
2022-09-22T18:13:22.136Z,16.24
2022-09-22T18:15:50.957Z,16.19
2022-09-22T18:18:18.649Z,16.15
2022-09-22T18:20:46.320Z,16.11
2022-09-22T18:23:15.387Z,16.06
2022-09-22T18:25:42.963Z,15.98
2022-09-22T18:28:11.085Z,15.91
2022-09-22T18:30:40.822Z,15.93
2022-09-22T18:33:08.480Z,15.93
2022-09-22T18:35:36.948Z,15.91
2022-09-22T18:38:04.647Z,15.87
2022-09-22T18:40:33.729Z,15.82
2022-09-22T18:43:01.399Z,15.77
2022-09-22T18:45:29.150Z,15.72
2022-09-22T18:47:59.115Z,15.68
2022-09-22T18:50:28.052Z,15.65
2022-09-22T18:52:56.699Z,15.64
2022-09-22T18:55:24.310Z,15.61
2022-09-22T18:57:54.048Z,15.61
2022-09-22T19:00:22.178Z,15.60
2022-09-22T19:02:50.268Z,15.57
2022-09-22T19:05:18.100Z,15.53
2022-09-22T19:07:47.757Z,15.49
2022-09-22T19:10:18.791Z,15.44
2022-09-22T19:12:46.457Z,15.42
2022-09-22T19:15:18.648Z,15.39
2022-09-22T19:17:49.317Z,15.35
2022-09-22T19:20:18.603Z,15.33
2022-09-22T19:22:46.847Z,15.28
2022-09-22T19:25:14.918Z,15.25
2022-09-22T19:27:42.923Z,15.21
2022-09-22T19:30:11.915Z,15.13
2022-09-22T19:32:41.358Z,15.16
2022-09-22T19:35:10.512Z,15.13
2022-09-22T19:37:38.331Z,15.07
2022-09-22T19:40:06.873Z,15.04
2022-09-22T19:42:40.021Z,14.97
2022-09-22T19:45:08.873Z,14.94
2022-09-22T19:47:36.768Z,14.89
2022-09-22T19:50:07.806Z,14.82
2022-09-22T19:52:35.982Z,14.82
2022-09-22T19:55:03.629Z,14.80
2022-09-22T19:57:31.867Z,14.76
2022-09-22T19:59:59.655Z,14.73
2022-09-22T20:02:27.443Z,14.71
2022-09-22T20:04:55.836Z,14.68
2022-09-22T20:07:27.764Z,14.64
2022-09-22T20:09:56.510Z,14.64
2022-09-22T20:12:24.315Z,14.65
2022-09-22T20:14:52.654Z,14.61
2022-09-22T20:17:20.392Z,14.57
2022-09-22T20:19:48.034Z,14.52
2022-09-22T20:22:21.198Z,14.48
2022-09-22T20:24:54.035Z,14.44
2022-09-22T20:27:25.939Z,14.43
2022-09-22T20:29:57.042Z,14.42
2022-09-22T20:32:25.566Z,14.40
2022-09-22T20:34:54.036Z,14.36
2022-09-22T20:37:21.733Z,14.33
2022-09-22T20:39:51.106Z,14.30
2022-09-22T20:42:18.777Z,14.27
2022-09-22T20:44:46.847Z,14.24
2022-09-22T20:47:15.925Z,14.21
2022-09-22T20:49:45.924Z,14.17
2022-09-22T20:52:19.886Z,14.13
2022-09-22T20:54:47.787Z,14.13
2022-09-22T20:57:17.012Z,14.10
2022-09-22T20:59:45.764Z,14.06
2022-09-22T21:02:13.954Z,14.04
2022-09-22T21:04:42.151Z,14.01
2022-09-22T21:07:11.214Z,13.99
2022-09-22T21:09:56.446Z,13.98
2022-09-22T21:12:30.716Z,13.95
2022-09-22T21:14:59.041Z,13.94
2022-09-22T21:17:27.694Z,13.93
2022-09-22T21:19:56.278Z,13.93
2022-09-22T21:22:24.464Z,13.90
2022-09-22T21:24:52.531Z,13.87
2022-09-22T21:27:20.479Z,13.83
2022-09-22T21:29:49.658Z,13.80
2022-09-22T21:32:17.488Z,13.79
2022-09-22T21:34:45.789Z,13.75
2022-09-22T21:37:14.478Z,13.74
2022-09-22T21:39:42.133Z,13.72
2022-09-22T21:42:09.772Z,13.71
2022-09-22T21:44:37.465Z,13.67
2022-09-22T21:47:06.948Z,13.63
2022-09-22T21:49:34.674Z,13.61
2022-09-22T21:52:02.697Z,13.59
2022-09-22T21:54:31.164Z,13.57
2022-09-22T21:56:58.831Z,13.55
2022-09-22T21:59:26.569Z,13.54
2022-09-22T22:01:54.263Z,13.51
2022-09-22T22:04:23.461Z,13.49
2022-09-22T22:06:51.622Z,13.51
2022-09-22T22:09:20.881Z,13.50
2022-09-22T22:11:49.740Z,13.51
2022-09-22T22:14:19.587Z,13.48
2022-09-22T22:16:49.423Z,13.45
2022-09-22T22:19:19.970Z,13.44
2022-09-22T22:21:50.245Z,13.40
2022-09-22T22:24:31.675Z,13.39
2022-09-22T22:27:01.414Z,13.36
2022-09-22T22:29:31.780Z,13.33
2022-09-22T22:32:00.712Z,13.32
2022-09-22T22:34:28.486Z,13.28
2022-09-22T22:36:59.058Z,13.28
2022-09-22T22:39:27.014Z,13.28
2022-09-22T22:41:55.604Z,13.27
2022-09-22T22:44:23.436Z,13.25
2022-09-22T22:46:51.106Z,13.24
2022-09-22T22:49:19.073Z,13.23
2022-09-22T22:51:46.796Z,13.22
2022-09-22T22:54:15.865Z,13.20
2022-09-22T22:56:46.723Z,13.20
2022-09-22T22:59:16.874Z,13.19
2022-09-22T23:01:44.687Z,13.18
2022-09-22T23:04:12.703Z,13.16
2022-09-22T23:06:43.923Z,13.16
2022-09-22T23:09:13.971Z,13.17
2022-09-22T23:11:44.000Z,13.17
2022-09-22T23:14:13.216Z,13.16
2022-09-22T23:16:43.263Z,13.16
2022-09-22T23:19:13.030Z,13.16
2022-09-22T23:21:40.770Z,13.15
2022-09-22T23:24:09.152Z,13.14
2022-09-22T23:26:37.546Z,13.13
2022-09-22T23:29:06.959Z,13.11
2022-09-22T23:31:34.785Z,13.11
2022-09-22T23:34:02.568Z,13.12
2022-09-22T23:36:30.557Z,13.12
2022-09-22T23:39:01.903Z,13.12
2022-09-22T23:41:29.784Z,13.13
2022-09-22T23:43:57.410Z,13.10
2022-09-22T23:46:26.713Z,13.09
2022-09-22T23:48:55.369Z,13.06
2022-09-22T23:51:23.219Z,13.07
2022-09-22T23:53:51.190Z,13.07
2022-09-22T23:56:19.593Z,13.06
2022-09-22T23:58:47.622Z,13.08
